SAA30 FAOR-FBSK
Flight info
| Callsign | SAA30 |
|---|---|
| Flight time | 0h 36m |
| Altitude | 26000 |
| Route | VASUR3A VASUR UQ24 DUSLI DUSLI1D |
| Aircraft | A320/M-SDE3FGHIRWY/LB1 |
Departure
| Time | 2026-05-06 18:40 |
|---|---|
| Airport | O.R. Tambo International Airport (FAOR) |
Arrival
| Time | 2026-05-06 19:16 |
|---|---|
| Airport | Sir Seretse Khama International Airport (FBSK) |
| Time | Latitude | Longitude | Altitude | Speed | Heading |
|---|---|---|---|---|---|
| 2026-05-06 18:11 | -26.12937 | 28.23654 | 5547 ft | 0 kts | 186° |
| 2026-05-06 18:29 | -26.12927 | 28.23655 | 5549 ft | 4 kts | 186° |
| 2026-05-06 18:29 | -26.12900 | 28.23659 | 5548 ft | 4 kts | 186° |
| 2026-05-06 18:30 | -26.12873 | 28.23662 | 5551 ft | 4 kts | 186° |
| 2026-05-06 18:30 | -26.12851 | 28.23664 | 5547 ft | 4 kts | 173° |
| 2026-05-06 18:30 | -26.12829 | 28.23654 | 5546 ft | 4 kts | 120° |
| 2026-05-06 18:30 | -26.12822 | 28.23627 | 5548 ft | 3 kts | 96° |
| 2026-05-06 18:31 | -26.12820 | 28.23608 | 5548 ft | 0 kts | 96° |
| 2026-05-06 18:33 | -26.12821 | 28.23617 | 5547 ft | 2 kts | 96° |
| 2026-05-06 18:33 | -26.12824 | 28.23651 | 5546 ft | 6 kts | 96° |
| 2026-05-06 18:34 | -26.12830 | 28.23712 | 5550 ft | 9 kts | 96° |
| 2026-05-06 18:34 | -26.12857 | 28.23774 | 5547 ft | 11 kts | 142° |
| 2026-05-06 18:34 | -26.12908 | 28.23770 | 5548 ft | 12 kts | 194° |
| 2026-05-06 18:34 | -26.12995 | 28.23744 | 5548 ft | 14 kts | 196° |
| 2026-05-06 18:35 | -26.13125 | 28.23703 | 5546 ft | 16 kts | 195° |
| 2026-05-06 18:35 | -26.13200 | 28.23680 | 5547 ft | 17 kts | 195° |
| 2026-05-06 18:35 | -26.13314 | 28.23644 | 5550 ft | 17 kts | 196° |
| 2026-05-06 18:35 | -26.13430 | 28.23609 | 5551 ft | 17 kts | 195° |
| 2026-05-06 18:36 | -26.13549 | 28.23572 | 5552 ft | 18 kts | 195° |
| 2026-05-06 18:36 | -26.13672 | 28.23533 | 5553 ft | 18 kts | 195° |
| 2026-05-06 18:36 | -26.13791 | 28.23496 | 5558 ft | 17 kts | 195° |
| 2026-05-06 18:36 | -26.13909 | 28.23459 | 5559 ft | 18 kts | 196° |
| 2026-05-06 18:37 | -26.14028 | 28.23423 | 5563 ft | 17 kts | 195° |
| 2026-05-06 18:37 | -26.14142 | 28.23388 | 5564 ft | 18 kts | 196° |
| 2026-05-06 18:37 | -26.14262 | 28.23350 | 5564 ft | 18 kts | 195° |
| 2026-05-06 18:37 | -26.14373 | 28.23316 | 5566 ft | 15 kts | 195° |
| 2026-05-06 18:38 | -26.14465 | 28.23288 | 5565 ft | 14 kts | 195° |
| 2026-05-06 18:38 | -26.14569 | 28.23290 | 5565 ft | 16 kts | 161° |
| 2026-05-06 18:38 | -26.14617 | 28.23387 | 5567 ft | 14 kts | 104° |
| 2026-05-06 18:38 | -26.14600 | 28.23449 | 5567 ft | 9 kts | 23° |
| 2026-05-06 18:39 | -26.14498 | 28.23479 | 5564 ft | 33 kts | 15° |
| 2026-05-06 18:39 | -26.14033 | 28.23622 | 5564 ft | 102 kts | 16° |
| 2026-05-06 18:39 | -26.13178 | 28.23888 | 5547 ft | 150 kts | 15° |
| 2026-05-06 18:40 | -26.10870 | 28.24576 | 6436 ft | 177 kts | 9° |
| 2026-05-06 18:40 | -26.09679 | 28.24949 | 7116 ft | 179 kts | 10° |
| 2026-05-06 18:40 | -26.08438 | 28.25407 | 7514 ft | 199 kts | 11° |
| 2026-05-06 18:40 | -26.07050 | 28.25922 | 7800 ft | 222 kts | 12° |
| 2026-05-06 18:41 | -26.05501 | 28.26480 | 8110 ft | 244 kts | 12° |
| 2026-05-06 18:41 | -26.03802 | 28.26976 | 8466 ft | 261 kts | 359° |
| 2026-05-06 18:41 | -26.02012 | 28.26693 | 8895 ft | 269 kts | 331° |
| 2026-05-06 18:41 | -26.00527 | 28.25467 | 9647 ft | 267 kts | 304° |
| 2026-05-06 18:42 | -25.99421 | 28.23790 | 10377 ft | 276 kts | 301° |
| 2026-05-06 18:42 | -25.98274 | 28.21972 | 10705 ft | 298 kts | 301° |
| 2026-05-06 18:42 | -25.97068 | 28.20046 | 11319 ft | 307 kts | 301° |
| 2026-05-06 18:42 | -25.95841 | 28.18089 | 12074 ft | 311 kts | 301° |
| 2026-05-06 18:43 | -25.94593 | 28.16105 | 12859 ft | 315 kts | 301° |
| 2026-05-06 18:43 | -25.93326 | 28.14102 | 13669 ft | 318 kts | 302° |
| 2026-05-06 18:43 | -25.92045 | 28.12081 | 14380 ft | 321 kts | 302° |
| 2026-05-06 18:43 | -25.90752 | 28.10043 | 15097 ft | 324 kts | 302° |
| 2026-05-06 18:44 | -25.89445 | 28.07987 | 15813 ft | 326 kts | 302° |
| 2026-05-06 18:44 | -25.88134 | 28.05928 | 16543 ft | 327 kts | 302° |
| 2026-05-06 18:44 | -25.86815 | 28.03856 | 17269 ft | 329 kts | 301° |
| 2026-05-06 18:44 | -25.85506 | 28.01796 | 17982 ft | 332 kts | 301° |
| 2026-05-06 18:45 | -25.84168 | 27.99689 | 18668 ft | 334 kts | 301° |
| 2026-05-06 18:45 | -25.82825 | 27.97573 | 19330 ft | 336 kts | 301° |
| 2026-05-06 18:45 | -25.81478 | 27.95448 | 20019 ft | 337 kts | 301° |
| 2026-05-06 18:45 | -25.80125 | 27.93320 | 20735 ft | 337 kts | 301° |
| 2026-05-06 18:46 | -25.78770 | 27.91194 | 21433 ft | 338 kts | 302° |
| 2026-05-06 18:46 | -25.77410 | 27.89065 | 22105 ft | 337 kts | 302° |
| 2026-05-06 18:46 | -25.76054 | 27.86946 | 22863 ft | 335 kts | 302° |
| 2026-05-06 18:46 | -25.74705 | 27.84834 | 23594 ft | 335 kts | 302° |
| 2026-05-06 18:47 | -25.73378 | 27.82750 | 24158 ft | 335 kts | 302° |
| 2026-05-06 18:47 | -25.72033 | 27.80637 | 24676 ft | 335 kts | 298° |
| 2026-05-06 18:47 | -25.71299 | 27.78393 | 25872 ft | 309 kts | 287° |
| 2026-05-06 18:47 | -25.70389 | 27.76190 | 26054 ft | 322 kts | 299° |
| 2026-05-06 18:48 | -25.69143 | 27.74060 | 26118 ft | 335 kts | 301° |
| 2026-05-06 18:48 | -25.67843 | 27.71887 | 26125 ft | 340 kts | 301° |
| 2026-05-06 18:48 | -25.66529 | 27.69723 | 26119 ft | 334 kts | 302° |
| 2026-05-06 18:48 | -25.65214 | 27.67667 | 26120 ft | 321 kts | 302° |
| 2026-05-06 18:49 | -25.63908 | 27.65685 | 26127 ft | 317 kts | 303° |
| 2026-05-06 18:49 | -25.62600 | 27.63721 | 26125 ft | 316 kts | 303° |
| 2026-05-06 18:49 | -25.61299 | 27.61764 | 26125 ft | 315 kts | 303° |
| 2026-05-06 18:49 | -25.60005 | 27.59803 | 26125 ft | 315 kts | 302° |
| 2026-05-06 18:50 | -25.58714 | 27.57842 | 26121 ft | 315 kts | 302° |
| 2026-05-06 18:50 | -25.57472 | 27.55914 | 26412 ft | 308 kts | 304° |
| 2026-05-06 18:50 | -25.56156 | 27.53988 | 26364 ft | 314 kts | 303° |
| 2026-05-06 18:50 | -25.54864 | 27.52036 | 26231 ft | 314 kts | 302° |
| 2026-05-06 18:51 | -25.53586 | 27.50075 | 26150 ft | 313 kts | 302° |
| 2026-05-06 18:51 | -25.52314 | 27.48117 | 26138 ft | 313 kts | 302° |
| 2026-05-06 18:51 | -25.51039 | 27.46156 | 26143 ft | 313 kts | 302° |
| 2026-05-06 18:51 | -25.49763 | 27.44196 | 26129 ft | 315 kts | 302° |
| 2026-05-06 18:52 | -25.48477 | 27.42227 | 26117 ft | 316 kts | 302° |
| 2026-05-06 18:52 | -25.47185 | 27.40257 | 26107 ft | 317 kts | 302° |
| 2026-05-06 18:52 | -25.45890 | 27.38285 | 26110 ft | 317 kts | 302° |
| 2026-05-06 18:52 | -25.44588 | 27.36308 | 26120 ft | 318 kts | 302° |
| 2026-05-06 18:53 | -25.43285 | 27.34331 | 26120 ft | 318 kts | 302° |
| 2026-05-06 18:53 | -25.41980 | 27.32353 | 26119 ft | 319 kts | 302° |
| 2026-05-06 18:53 | -25.40669 | 27.30364 | 26123 ft | 319 kts | 302° |
| 2026-05-06 18:53 | -25.39364 | 27.28383 | 26126 ft | 319 kts | 302° |
| 2026-05-06 18:54 | -25.38057 | 27.26402 | 26129 ft | 319 kts | 302° |
| 2026-05-06 18:54 | -25.36748 | 27.24420 | 26085 ft | 319 kts | 302° |
| 2026-05-06 18:54 | -25.35440 | 27.22442 | 26097 ft | 319 kts | 302° |
| 2026-05-06 18:54 | -25.34151 | 27.20488 | 26107 ft | 318 kts | 302° |
| 2026-05-06 18:55 | -25.32842 | 27.18507 | 26116 ft | 318 kts | 302° |
| 2026-05-06 18:55 | -25.31537 | 27.16531 | 26137 ft | 318 kts | 301° |
| 2026-05-06 18:55 | -25.30231 | 27.14551 | 26131 ft | 319 kts | 301° |
| 2026-05-06 18:55 | -25.28923 | 27.12567 | 26129 ft | 320 kts | 301° |
| 2026-05-06 18:56 | -25.27610 | 27.10582 | 26124 ft | 320 kts | 302° |
| 2026-05-06 18:56 | -25.26293 | 27.08596 | 26126 ft | 321 kts | 302° |
| 2026-05-06 18:56 | -25.24974 | 27.06607 | 26126 ft | 321 kts | 302° |
| 2026-05-06 18:56 | -25.23655 | 27.04611 | 26128 ft | 321 kts | 302° |
| 2026-05-06 18:57 | -25.22336 | 27.02616 | 26132 ft | 321 kts | 301° |
| 2026-05-06 18:57 | -25.21016 | 27.00623 | 26133 ft | 322 kts | 301° |
| 2026-05-06 18:57 | -25.19693 | 26.98628 | 26134 ft | 319 kts | 302° |
| 2026-05-06 18:57 | -25.18398 | 26.96682 | 25969 ft | 311 kts | 302° |
| 2026-05-06 18:58 | -25.17142 | 26.94798 | 25654 ft | 307 kts | 301° |
| 2026-05-06 18:58 | -25.15886 | 26.92906 | 25278 ft | 304 kts | 301° |
| 2026-05-06 18:58 | -25.14644 | 26.91029 | 24857 ft | 302 kts | 301° |
| 2026-05-06 18:58 | -25.13410 | 26.89166 | 24489 ft | 300 kts | 301° |
| 2026-05-06 18:59 | -25.12184 | 26.87317 | 24106 ft | 298 kts | 301° |
| 2026-05-06 18:59 | -25.10959 | 26.85477 | 23707 ft | 297 kts | 301° |
| 2026-05-06 18:59 | -25.09733 | 26.83636 | 23215 ft | 297 kts | 301° |
| 2026-05-06 18:59 | -25.08513 | 26.81801 | 22730 ft | 296 kts | 301° |
| 2026-05-06 19:00 | -25.07290 | 26.79965 | 22258 ft | 296 kts | 301° |
| 2026-05-06 19:00 | -25.06071 | 26.78137 | 21799 ft | 296 kts | 301° |
| 2026-05-06 19:00 | -25.04868 | 26.76335 | 21353 ft | 295 kts | 301° |
| 2026-05-06 19:00 | -25.03652 | 26.74508 | 20908 ft | 295 kts | 301° |
| 2026-05-06 19:01 | -25.02438 | 26.72685 | 20475 ft | 295 kts | 301° |
| 2026-05-06 19:01 | -25.01222 | 26.70863 | 20167 ft | 294 kts | 302° |
| 2026-05-06 19:01 | -25.00000 | 26.69030 | 20119 ft | 298 kts | 302° |
| 2026-05-06 19:01 | -24.98766 | 26.67178 | 20004 ft | 300 kts | 302° |
| 2026-05-06 19:02 | -24.97527 | 26.65332 | 19768 ft | 299 kts | 303° |
| 2026-05-06 19:02 | -24.96106 | 26.63634 | 19533 ft | 302 kts | 309° |
| 2026-05-06 19:02 | -24.94635 | 26.61971 | 19301 ft | 302 kts | 309° |
| 2026-05-06 19:02 | -24.93187 | 26.60336 | 19045 ft | 302 kts | 309° |
| 2026-05-06 19:03 | -24.91715 | 26.58672 | 18820 ft | 304 kts | 309° |
| 2026-05-06 19:03 | -24.90245 | 26.57009 | 18585 ft | 301 kts | 309° |
| 2026-05-06 19:03 | -24.88785 | 26.55359 | 18202 ft | 300 kts | 309° |
| 2026-05-06 19:03 | -24.87336 | 26.53718 | 17775 ft | 299 kts | 309° |
| 2026-05-06 19:04 | -24.85889 | 26.52078 | 17158 ft | 297 kts | 309° |
| 2026-05-06 19:04 | -24.84449 | 26.50446 | 16404 ft | 296 kts | 309° |
| 2026-05-06 19:04 | -24.83014 | 26.48820 | 15696 ft | 296 kts | 309° |
| 2026-05-06 19:04 | -24.81580 | 26.47197 | 15021 ft | 296 kts | 309° |
| 2026-05-06 19:05 | -24.80145 | 26.45570 | 14509 ft | 296 kts | 309° |
| 2026-05-06 19:05 | -24.78710 | 26.43948 | 13997 ft | 295 kts | 309° |
| 2026-05-06 19:05 | -24.77279 | 26.42333 | 13430 ft | 294 kts | 309° |
| 2026-05-06 19:05 | -24.75855 | 26.40725 | 12892 ft | 293 kts | 309° |
| 2026-05-06 19:06 | -24.74456 | 26.39148 | 12371 ft | 291 kts | 309° |
| 2026-05-06 19:06 | -24.73048 | 26.37563 | 11868 ft | 288 kts | 307° |
| 2026-05-06 19:06 | -24.71981 | 26.35994 | 12060 ft | 252 kts | 302° |
| 2026-05-06 19:06 | -24.70773 | 26.34478 | 11287 ft | 274 kts | 310° |
| 2026-05-06 19:07 | -24.69375 | 26.32984 | 10713 ft | 284 kts | 312° |
| 2026-05-06 19:07 | -24.68397 | 26.31982 | 10447 ft | 285 kts | 313° |
| 2026-05-06 19:07 | -24.66490 | 26.30014 | 10049 ft | 281 kts | 311° |
| 2026-05-06 19:07 | -24.65111 | 26.28546 | 9926 ft | 271 kts | 311° |
| 2026-05-06 19:08 | -24.63794 | 26.27110 | 9792 ft | 262 kts | 310° |
| 2026-05-06 19:08 | -24.62527 | 26.25702 | 9565 ft | 257 kts | 310° |
| 2026-05-06 19:08 | -24.61281 | 26.24307 | 9356 ft | 252 kts | 310° |
| 2026-05-06 19:08 | -24.60068 | 26.22950 | 9197 ft | 246 kts | 309° |
| 2026-05-06 19:09 | -24.58874 | 26.21609 | 8937 ft | 244 kts | 309° |
| 2026-05-06 19:09 | -24.57694 | 26.20281 | 8682 ft | 241 kts | 309° |
| 2026-05-06 19:09 | -24.56543 | 26.18987 | 8542 ft | 233 kts | 309° |
| 2026-05-06 19:09 | -24.55416 | 26.17722 | 8294 ft | 230 kts | 309° |
| 2026-05-06 19:10 | -24.54195 | 26.16577 | 8007 ft | 233 kts | 321° |
| 2026-05-06 19:10 | -24.52780 | 26.15702 | 7728 ft | 233 kts | 327° |
| 2026-05-06 19:10 | -24.51349 | 26.14860 | 7463 ft | 232 kts | 327° |
| 2026-05-06 19:10 | -24.49929 | 26.14024 | 7234 ft | 231 kts | 327° |
| 2026-05-06 19:11 | -24.48515 | 26.13172 | 6937 ft | 230 kts | 322° |
| 2026-05-06 19:11 | -24.47454 | 26.11945 | 6686 ft | 218 kts | 293° |
| 2026-05-06 19:11 | -24.47066 | 26.10435 | 6569 ft | 203 kts | 269° |
| 2026-05-06 19:11 | -24.47291 | 26.08978 | 6480 ft | 188 kts | 247° |
| 2026-05-06 19:12 | -24.47863 | 26.07733 | 6340 ft | 177 kts | 243° |
| 2026-05-06 19:12 | -24.48409 | 26.06563 | 6191 ft | 168 kts | 243° |
| 2026-05-06 19:12 | -24.48930 | 26.05443 | 5926 ft | 161 kts | 243° |
| 2026-05-06 19:12 | -24.49429 | 26.04368 | 5671 ft | 155 kts | 243° |
| 2026-05-06 19:13 | -24.49910 | 26.03331 | 5419 ft | 150 kts | 243° |
| 2026-05-06 19:13 | -24.50376 | 26.02326 | 5192 ft | 144 kts | 242° |
| 2026-05-06 19:13 | -24.50821 | 26.01367 | 4999 ft | 136 kts | 242° |
| 2026-05-06 19:13 | -24.51255 | 26.00440 | 4786 ft | 136 kts | 243° |
| 2026-05-06 19:14 | -24.51685 | 25.99518 | 4569 ft | 135 kts | 243° |
| 2026-05-06 19:14 | -24.52105 | 25.98614 | 4362 ft | 135 kts | 243° |
| 2026-05-06 19:14 | -24.52533 | 25.97697 | 4151 ft | 135 kts | 242° |
| 2026-05-06 19:14 | -24.52977 | 25.96788 | 3885 ft | 135 kts | 237° |
| 2026-05-06 19:15 | -24.53477 | 25.95918 | 3691 ft | 135 kts | 236° |
| 2026-05-06 19:15 | -24.53949 | 25.95022 | 3527 ft | 135 kts | 238° |
| 2026-05-06 19:15 | -24.54399 | 25.94119 | 3361 ft | 135 kts | 239° |
| 2026-05-06 19:15 | -24.54828 | 25.93260 | 3295 ft | 112 kts | 241° |
| 2026-05-06 19:16 | -24.55118 | 25.92676 | 3295 ft | 63 kts | 241° |
| 2026-05-06 19:16 | -24.55280 | 25.92353 | 3298 ft | 25 kts | 242° |
| 2026-05-06 19:16 | -24.55361 | 25.92287 | 3300 ft | 15 kts | 161° |
| 2026-05-06 19:16 | -24.55459 | 25.92344 | 3298 ft | 15 kts | 154° |
| 2026-05-06 19:17 | -24.55545 | 25.92375 | 3298 ft | 13 kts | 195° |
| 2026-05-06 19:17 | -24.55595 | 25.92305 | 3298 ft | 9 kts | 240° |
| 2026-05-06 19:17 | -24.55642 | 25.92317 | 3298 ft | 8 kts | 148° |
| 2026-05-06 19:17 | -24.55667 | 25.92333 | 3298 ft | 0 kts | 149° |
| 2026-05-06 19:19 | -24.55692 | 25.92328 | 3299 ft | 0 kts | 63° |